Descalvado, Brazil
Current Conditions -  °F | °C
As of 11:00 AM on Tuesday 21 Oct 2014 (Local Time) from SBYS Reporting Station
Broken Clouds Broken Clouds  
Wind Chill: 70°   Ceiling: 10000
Heat Index: 70°   Visibility: 6mi
Dew Point: 57°   Wind: 18mph
Humidity: 64%   Direction: 170°S
Pressure: 30.12"   Gusts: NA
Location:  21.9°S, 47.62°W
Report Text: SBYS 211300Z 17016KT 9999 FEW040 BKN100 21/14 Q1020
Loading
Personal Weather Stations






























Interactive Weather Map
Tropical Storm Tracking
New forecast layout! Learn more

10-Day Weather Forecast

Advertisements
Track Severe Weather on mobile